Time;durP1;ratioP1;P1;durP2;ratioP2;P2;SDS_P1;SDS_P2;PMS_P1;PMS_P2;Temp;Humidity;BMP_temperature;BMP_pressure;BME280_temperature;BME280_humidity;BME280_pressure;Samples;Min_cycle;Max_cycle;Signal;HPM_P1;HPM_P2
2023/09/08 00:01:26;;;;;;;12.57;9.40;;;;;;;16.87;100.00;102332.19;7367473;19;20493;-40
2023/09/08 00:03:56;;;;;;;14.43;9.10;;;;;;;16.88;100.00;102336.56;7394270;19;20766;-43
2023/09/08 00:06:26;;;;;;;12.30;8.93;;;;;;;16.82;100.00;102335.47;7368328;19;20443;-41
2023/09/08 00:08:55;;;;;;;12.70;9.23;;;;;;;16.77;100.00;102332.63;7394743;19;20502;-39
2023/09/08 00:11:25;;;;;;;14.10;8.93;;;;;;;16.83;100.00;102337.22;7367562;19;20423;-40
2023/09/08 00:13:54;;;;;;;14.33;8.87;;;;;;;16.82;100.00;102332.84;7391267;19;20491;-41
2023/09/08 00:16:29;;;;;;;15.10;8.87;;;;;;;16.75;100.00;102329.09;7367355;19;20419;-40
2023/09/08 00:18:59;;;;;;;11.17;8.07;;;;;;;16.67;100.00;102326.16;7393999;19;21102;-42
2023/09/08 00:21:29;;;;;;;11.97;8.23;;;;;;;16.68;100.00;102322.75;7367703;19;20455;-43
2023/09/08 00:24:00;;;;;;;12.30;8.00;;;;;;;16.63;100.00;102311.25;7396110;19;20496;-41
2023/09/08 00:26:30;;;;;;;15.10;8.53;;;;;;;16.69;100.00;102301.06;7368185;19;20453;-42
2023/09/08 00:29:00;;;;;;;11.53;8.57;;;;;;;16.67;100.00;102288.81;7393675;19;20443;-41
2023/09/08 00:31:32;;;;;;;9.80;7.43;;;;;;;16.67;100.00;102273.16;7367541;19;20494;-46
2023/09/08 00:34:02;;;;;;;12.93;7.97;;;;;;;16.60;100.00;102252.06;7393479;19;20412;-41
2023/09/08 00:36:32;;;;;;;11.90;8.23;;;;;;;16.63;100.00;102240.91;7367509;19;20419;-40
2023/09/08 00:39:01;;;;;;;11.90;7.70;;;;;;;16.66;100.00;102229.72;7394149;19;20443;-42
2023/09/08 00:41:31;;;;;;;14.77;8.20;;;;;;;16.66;100.00;102217.56;7367467;19;20419;-41
2023/09/08 00:44:01;;;;;;;11.77;7.30;;;;;;;16.59;100.00;102198.19;7393042;19;20800;-41
2023/09/08 00:46:33;;;;;;;12.33;7.43;;;;;;;16.56;100.00;102182.44;7367378;19;20427;-40
2023/09/08 00:49:03;;;;;;;11.43;7.67;;;;;;;16.59;100.00;102177.34;7394678;19;20479;-41
2023/09/08 00:51:33;;;;;;;12.80;7.87;;;;;;;16.54;100.00;102163.25;7367463;19;20994;-42
2023/09/08 00:54:03;;;;;;;12.20;7.23;;;;;;;16.46;100.00;102146.44;7393249;19;20415;-41
2023/09/08 00:56:32;;;;;;;10.10;7.67;;;;;;;16.47;100.00;102143.00;7367224;19;20483;-42
2023/09/08 00:59:02;;;;;;;10.40;7.20;;;;;;;16.45;100.00;102139.44;7393089;19;20822;-42
2023/09/08 01:01:34;;;;;;;10.50;7.07;;;;;;;16.46;100.00;102125.59;7365913;19;20435;-41
2023/09/08 01:04:04;;;;;;;8.47;6.40;;;;;;;16.34;100.00;102107.75;7392823;19;20408;-39
2023/09/08 01:06:36;;;;;;;13.50;6.93;;;;;;;16.35;100.00;102114.75;7366504;19;20427;-41
2023/09/08 01:09:07;;;;;;;11.17;8.00;;;;;;;16.43;100.00;102113.34;7393370;19;20510;-39
2023/09/08 01:11:36;;;;;;;9.93;7.07;;;;;;;16.41;100.00;102093.28;7366434;19;20427;-40
2023/09/08 01:14:06;;;;;;;11.40;7.20;;;;;;;16.42;100.00;102085.50;7392518;19;20428;-40
2023/09/08 01:16:40;;;;;;;11.50;7.40;;;;;;;16.46;100.00;102076.13;7366658;19;20426;-40
2023/09/08 01:19:13;;;;;;;10.47;7.17;;;;;;;16.50;100.00;102057.16;7393174;19;20431;-41
2023/09/08 01:22:19;;;;;;;9.53;7.20;;;;;;;16.49;100.00;102034.53;7365969;19;20419;-41
2023/09/08 01:25:17;;;;;;;10.97;6.67;;;;;;;16.51;100.00;102022.44;7386707;19;20417;-40
2023/09/08 01:27:49;;;;;;;13.40;6.47;;;;;;;16.45;100.00;102002.28;7370593;19;20555;-40
2023/09/08 01:30:19;;;;;;;21.13;6.37;;;;;;;16.53;100.00;101994.75;7369011;19;20426;-41
2023/09/08 01:32:49;;;;;;;10.93;6.67;;;;;;;16.54;100.00;101985.22;7390688;19;20411;-41
2023/09/08 01:35:19;;;;;;;12.07;7.10;;;;;;;16.52;100.00;101973.84;7370399;19;20420;-39
2023/09/08 01:37:49;;;;;;;11.53;7.30;;;;;;;16.52;100.00;101976.47;7391817;19;20424;-41
2023/09/08 01:40:22;;;;;;;10.20;6.20;;;;;;;16.50;100.00;101955.56;7368999;19;20419;-39
2023/09/08 01:42:51;;;;;;;11.90;7.17;;;;;;;16.46;100.00;101957.16;7389969;19;20474;-41
2023/09/08 01:45:21;;;;;;;12.57;7.30;;;;;;;16.47;100.00;101963.28;7368745;19;20419;-42
2023/09/08 01:47:51;;;;;;;11.03;6.63;;;;;;;16.41;100.00;101956.09;7390750;19;20795;-39
2023/09/08 01:50:24;;;;;;;11.37;7.20;;;;;;;16.35;100.00;101948.06;7369630;19;20431;-42
2023/09/08 01:52:53;;;;;;;10.50;6.63;;;;;;;16.37;100.00;101962.06;7390282;19;20407;-41
2023/09/08 01:55:26;;;;;;;9.13;6.70;;;;;;;16.32;100.00;101954.06;7368222;19;20420;-40
2023/09/08 01:57:55;;;;;;;12.13;7.10;;;;;;;16.28;100.00;101952.19;7390478;19;20793;-41
2023/09/08 02:00:25;;;;;;;11.93;7.00;;;;;;;16.27;100.00;101955.63;7365089;19;20400;-41
2023/09/08 02:02:54;;;;;;;11.60;7.00;;;;;;;16.23;100.00;101955.44;7389816;19;20400;-41
2023/09/08 02:05:25;;;;;;;10.37;7.00;;;;;;;16.24;100.00;101962.44;7366294;19;20384;-40
2023/09/08 02:07:55;;;;;;;8.90;6.57;;;;;;;16.22;100.00;101959.75;7390040;19;20514;-40
2023/09/08 02:10:27;;;;;;;9.90;7.10;;;;;;;16.30;100.00;101971.34;7365985;19;21294;-42
2023/09/08 02:12:57;;;;;;;10.27;7.47;;;;;;;16.29;100.00;101960.88;7389194;19;21027;-43
2023/09/08 02:15:27;;;;;;;10.77;7.43;;;;;;;16.22;100.00;101951.94;7365039;19;20466;-40
2023/09/08 02:17:57;;;;;;;11.13;6.60;;;;;;;16.27;100.00;101949.50;7389904;19;20442;-41
2023/09/08 02:20:26;;;;;;;10.13;8.07;;;;;;;16.18;100.00;101944.84;7367205;19;20402;-40
2023/09/08 02:22:57;;;;;;;13.27;8.33;;;;;;;16.22;100.00;101956.25;7389445;19;20407;-43
2023/09/08 02:25:29;;;;;;;12.03;7.30;;;;;;;16.08;100.00;101953.13;7365755;19;20435;-41
2023/09/08 02:27:58;;;;;;;13.90;7.63;;;;;;;16.03;100.00;101961.66;7390934;19;20782;-41
2023/09/08 02:30:28;;;;;;;12.17;7.50;;;;;;;16.01;100.00;101973.72;7365713;19;20431;-42
2023/09/08 02:32:58;;;;;;;11.47;7.40;;;;;;;15.94;100.00;101979.50;7388805;19;20411;-42
2023/09/08 02:35:27;;;;;;;11.33;7.37;;;;;;;15.91;100.00;101988.06;7364849;19;20802;-40
2023/09/08 02:37:58;;;;;;;10.93;7.30;;;;;;;15.87;100.00;101995.69;7392129;19;20982;-40
2023/09/08 02:40:30;;;;;;;12.93;8.07;;;;;;;16.00;100.00;102002.31;7374267;19;20409;-41
2023/09/08 02:42:59;;;;;;;10.10;7.30;;;;;;;15.97;100.00;102003.06;7395754;19;20778;-42
2023/09/08 02:45:29;;;;;;;10.80;7.90;;;;;;;15.92;100.00;102007.19;7371685;19;20482;-40
2023/09/08 02:48:01;;;;;;;14.00;9.00;;;;;;;15.97;100.00;102013.47;7396769;19;20467;-41
2023/09/08 02:50:30;;;;;;;14.60;7.53;;;;;;;15.95;100.00;102014.25;7371908;19;20418;-42
2023/09/08 02:53:00;;;;;;;13.47;8.50;;;;;;;15.89;100.00;102020.06;7395511;19;20411;-40
2023/09/08 02:55:32;;;;;;;11.77;8.13;;;;;;;15.91;100.00;102023.63;7371730;19;21048;-40
2023/09/08 02:58:02;;;;;;;12.47;8.43;;;;;;;15.88;100.00;102028.69;7396101;19;20439;-40
2023/09/08 03:00:32;;;;;;;15.93;8.97;;;;;;;15.85;100.00;102031.19;7369986;19;20408;-41
2023/09/08 03:03:01;;;;;;;13.80;8.07;;;;;;;15.77;100.00;102036.97;7395061;19;20487;-40
2023/09/08 03:05:31;;;;;;;13.10;8.40;;;;;;;15.76;100.00;102052.50;7371260;19;21072;-39
2023/09/08 03:08:01;;;;;;;14.47;8.10;;;;;;;15.82;100.00;102062.25;7396519;19;20786;-39
2023/09/08 03:10:34;;;;;;;17.40;8.00;;;;;;;15.84;100.00;102071.03;7373011;19;20393;-40
2023/09/08 03:13:03;;;;;;;12.70;7.83;;;;;;;15.74;100.00;102069.78;7395338;19;20511;-41
2023/09/08 03:15:33;;;;;;;10.63;7.90;;;;;;;15.59;100.00;102088.22;7370204;19;20937;-39
2023/09/08 03:18:02;;;;;;;13.80;9.10;;;;;;;15.68;100.00;102118.94;7395438;19;20439;-39
2023/09/08 03:20:32;;;;;;;13.27;8.80;;;;;;;15.55;100.00;102120.13;7370570;19;20790;-40
2023/09/08 03:23:02;;;;;;;13.97;9.23;;;;;;;15.53;100.00;102141.75;7394725;19;20938;-42
2023/09/08 03:25:34;;;;;;;15.33;7.87;;;;;;;15.40;100.00;102165.47;7370575;19;20478;-41
2023/09/08 03:28:03;;;;;;;14.53;9.90;;;;;;;15.41;100.00;102182.84;7394557;19;20869;-39
2023/09/08 03:30:33;;;;;;;13.40;8.20;;;;;;;15.43;100.00;102175.09;7372331;19;20415;-40
2023/09/08 03:33:02;;;;;;;11.33;9.00;;;;;;;15.30;100.00;102194.47;7394370;19;20408;-40
2023/09/08 03:35:32;;;;;;;13.20;8.40;;;;;;;15.25;100.00;102209.84;7370129;19;20399;-41
2023/09/08 03:38:02;;;;;;;12.50;8.50;;;;;;;15.17;100.00;102219.03;7394925;19;20446;-41
2023/09/08 03:40:34;;;;;;;13.07;8.40;;;;;;;15.13;100.00;102218.00;7372096;19;20405;-41
2023/09/08 03:43:04;;;;;;;15.30;9.20;;;;;;;15.12;100.00;102222.28;7393874;19;20483;-40
2023/09/08 03:45:33;;;;;;;83.43;52.57;;;;;;;15.17;100.00;102226.81;7372127;19;20419;-40
2023/09/08 03:48:03;;;;;;;15.23;11.07;;;;;;;15.27;100.00;102243.72;7394294;19;20982;-40
2023/09/08 03:50:33;;;;;;;14.83;10.63;;;;;;;15.13;100.00;102238.78;7369907;19;20420;-41
2023/09/08 03:53:02;;;;;;;19.30;13.53;;;;;;;15.16;100.00;102238.91;7393730;19;20404;-41
2023/09/08 03:55:34;;;;;;;15.43;9.97;;;;;;;15.12;100.00;102230.09;7369516;19;20415;-40
2023/09/08 03:58:04;;;;;;;12.83;9.23;;;;;;;15.09;100.00;102234.25;7393399;19;20794;-41
2023/09/08 04:00:34;;;;;;;17.60;10.30;;;;;;;15.15;100.00;102234.53;7366973;19;20479;-40
2023/09/08 04:03:03;;;;;;;21.27;14.07;;;;;;;15.35;100.00;102229.38;7389374;19;20422;-39
2023/09/08 04:05:33;;;;;;;19.10;13.00;;;;;;;15.41;100.00;102221.84;7370261;19;20420;-38
2023/09/08 04:08:03;;;;;;;15.43;10.40;;;;;;;15.52;100.00;102214.50;7394478;19;20435;-42
2023/09/08 04:10:35;;;;;;;16.57;10.67;;;;;;;15.39;100.00;102200.97;7369099;19;20487;-40
2023/09/08 04:13:04;;;;;;;16.77;10.90;;;;;;;15.47;100.00;102193.50;7392952;19;20479;-41
2023/09/08 04:15:34;;;;;;;14.87;10.80;;;;;;;15.55;100.00;102188.66;7368439;19;20458;-38
2023/09/08 04:18:04;;;;;;;21.53;11.20;;;;;;;15.55;100.00;102175.66;7393705;19;20431;-40
2023/09/08 04:20:33;;;;;;;12.00;9.30;;;;;;;15.57;100.00;102163.59;7369196;19;20444;-39
2023/09/08 04:23:03;;;;;;;15.50;9.40;;;;;;;15.49;100.00;102160.66;7394754;19;20414;-39
2023/09/08 04:25:36;;;;;;;16.73;9.97;;;;;;;15.71;100.00;102164.19;7369265;19;20500;-40
2023/09/08 04:28:06;;;;;;;14.10;9.47;;;;;;;15.67;100.00;102141.47;7393023;19;20974;-38
2023/09/08 04:30:36;;;;;;;18.80;12.63;;;;;;;15.51;100.00;102134.72;7370336;19;20399;-43
2023/09/08 04:33:06;;;;;;;22.73;13.80;;;;;;;15.50;100.00;102136.41;7392585;19;20491;-40
2023/09/08 04:35:36;;;;;;;48.37;31.17;;;;;;;15.61;100.00;102134.28;7368421;19;20399;-42
2023/09/08 04:38:06;;;;;;;28.20;18.53;;;;;;;15.49;100.00;102120.75;7393138;19;20443;-42
2023/09/08 04:40:38;;;;;;;33.40;22.57;;;;;;;15.36;100.00;102128.03;7367860;19;20391;-39
2023/09/08 04:43:07;;;;;;;24.50;16.30;;;;;;;15.31;100.00;102120.81;7392716;19;20432;-41
2023/09/08 04:45:37;;;;;;;24.57;17.03;;;;;;;15.29;100.00;102135.47;7369398;19;21053;-39
2023/09/08 04:48:07;;;;;;;19.27;12.90;;;;;;;15.23;100.00;102123.97;7392787;19;20427;-39
2023/09/08 04:50:37;;;;;;;23.07;15.70;;;;;;;15.23;100.00;102136.97;7368026;19;20824;-40
2023/09/08 04:53:06;;;;;;;20.40;12.23;;;;;;;15.08;100.00;102142.38;7392277;19;20483;-41
2023/09/08 04:55:39;;;;;;;22.23;14.10;;;;;;;15.05;100.00;102143.94;7368904;19;20403;-41
2023/09/08 04:58:08;;;;;;;20.97;13.23;;;;;;;14.99;100.00;102153.25;7392317;19;20440;-41
2023/09/08 05:00:40;;;;;;;17.17;12.33;;;;;;;14.92;100.00;102156.38;7366641;19;20406;-45
2023/09/08 05:03:10;;;;;;;21.03;12.10;;;;;;;14.96;100.00;102168.72;7392241;19;20783;-38
2023/09/08 05:05:39;;;;;;;17.10;12.80;;;;;;;15.03;100.00;102175.06;7367295;19;20395;-39
2023/09/08 05:08:09;;;;;;;20.33;11.80;;;;;;;14.95;100.00;102172.13;7392386;19;20444;-39
2023/09/08 05:10:41;;;;;;;15.57;10.73;;;;;;;14.98;100.00;102177.47;7367373;19;20443;-41
2023/09/08 05:13:11;;;;;;;30.73;12.90;;;;;;;14.99;100.00;102171.44;7391711;19;20428;-41
2023/09/08 05:16:00;;;;;;;19.40;11.87;;;;;;;15.07;100.00;102181.31;7367229;19;20390;-45
2023/09/08 05:18:29;;;;;;;25.27;14.10;;;;;;;15.17;100.00;102178.31;7390801;19;20464;-41
2023/09/08 05:20:59;;;;;;;13.67;9.83;;;;;;;15.14;100.00;102175.59;7368579;19;20403;-44
2023/09/08 05:23:29;;;;;;;12.60;9.50;;;;;;;15.10;100.00;102171.03;7390660;19;20408;-42
2023/09/08 05:26:01;;;;;;;15.93;9.90;;;;;;;15.09;100.00;102170.16;7367749;19;20475;-45
2023/09/08 05:28:31;;;;;;;13.40;10.17;;;;;;;15.11;100.00;102178.03;7391423;19;20447;-43
2023/09/08 05:31:02;;;;;;;14.20;9.83;;;;;;;15.14;100.00;102172.97;7367044;19;20405;-41
2023/09/08 05:33:32;;;;;;;12.90;10.00;;;;;;;15.19;100.00;102174.09;7390961;19;20399;-41
2023/09/08 05:36:01;;;;;;;17.90;8.40;;;;;;;15.22;100.00;102174.22;7366161;19;20406;-43
2023/09/08 05:38:31;;;;;;;13.20;8.80;;;;;;;15.22;100.00;102170.69;7390071;19;20447;-42
2023/09/08 05:41:04;;;;;;;16.27;9.00;;;;;;;15.27;100.00;102178.75;7367063;19;20797;-42
2023/09/08 05:43:33;;;;;;;14.00;9.73;;;;;;;15.27;100.00;102179.59;7389454;19;20428;-41
2023/09/08 05:46:03;;;;;;;13.93;9.80;;;;;;;15.29;100.00;102171.88;7366645;19;20411;-42
2023/09/08 05:48:34;;;;;;;17.50;9.73;;;;;;;15.36;100.00;102158.31;7389805;19;20450;-41
2023/09/08 05:51:06;;;;;;;15.60;10.20;;;;;;;15.41;100.00;102163.72;7365859;19;20411;-39
2023/09/08 05:53:39;;;;;;;14.00;8.83;;;;;;;15.48;100.00;102148.47;7388822;19;20417;-44
2023/09/08 05:56:12;;;;;;;16.03;11.73;;;;;;;15.54;100.00;102142.66;7365326;19;20436;-43
2023/09/08 05:58:41;;;;;;;13.53;9.23;;;;;;;15.61;100.00;102143.81;7389863;19;20817;-44
2023/09/08 06:01:11;;;;;;;12.63;8.97;;;;;;;15.64;100.00;102136.16;7364637;19;20395;-41
2023/09/08 06:03:40;;;;;;;13.73;9.57;;;;;;;15.70;100.00;102133.81;7389661;19;20457;-41
2023/09/08 06:06:10;;;;;;;14.67;9.90;;;;;;;15.78;100.00;102131.50;7365815;19;21059;-43
2023/09/08 06:08:40;;;;;;;13.57;9.47;;;;;;;15.80;100.00;102132.47;7389577;19;20443;-45
2023/09/08 06:11:12;;;;;;;14.23;9.87;;;;;;;15.89;100.00;102129.38;7366139;19;20414;-45
2023/09/08 06:13:42;;;;;;;12.90;9.03;;;;;;;15.95;100.00;102123.56;7394399;19;20763;-45
2023/09/08 06:16:11;;;;;;;12.27;8.33;;;;;;;16.01;100.00;102116.88;7371053;19;21152;-45
2023/09/08 06:18:43;;;;;;;14.87;10.13;;;;;;;16.08;100.00;102114.53;7395825;19;20447;-41
2023/09/08 06:21:13;;;;;;;11.27;8.43;;;;;;;16.14;100.00;102109.56;7372077;19;20403;-45
2023/09/08 06:23:43;;;;;;;15.47;9.53;;;;;;;16.23;100.00;102104.75;7396635;19;21054;-40
2023/09/08 06:26:15;;;;;;;14.50;10.60;;;;;;;16.28;100.00;102092.78;7373668;19;20427;-44
2023/09/08 06:28:45;;;;;;;12.97;8.50;;;;;;;16.37;100.00;102084.47;7395788;19;20443;-43
2023/09/08 06:31:14;;;;;;;13.83;9.77;;;;;;;16.43;100.00;102071.66;7373934;19;20443;-42
2023/09/08 06:33:44;;;;;;;11.60;8.10;;;;;;;16.47;100.00;102063.13;7395429;19;20411;-42
2023/09/08 06:36:14;;;;;;;12.63;8.87;;;;;;;16.56;100.00;102052.16;7371818;19;20423;-43
2023/09/08 06:38:43;;;;;;;18.97;10.33;;;;;;;16.63;100.00;102037.66;7396540;19;20439;-44
2023/09/08 06:41:17;;;;;;;18.13;9.17;;;;;;;16.73;100.00;102023.25;7370928;19;20482;-42
2023/09/08 06:43:47;;;;;;;11.27;8.27;;;;;;;16.85;100.00;102005.47;7397297;19;20431;-42
2023/09/08 06:46:16;;;;;;;12.80;9.23;;;;;;;16.87;100.00;101985.53;7371722;19;20783;-43
2023/09/08 06:48:46;;;;;;;12.63;8.93;;;;;;;16.96;100.00;101979.75;7394765;19;20431;-42
2023/09/08 06:51:16;;;;;;;14.53;9.40;;;;;;;17.05;100.00;101978.34;7368053;19;20482;-46
2023/09/08 06:53:45;;;;;;;13.70;10.10;;;;;;;17.06;100.00;101962.75;7390718;19;20475;-45
2023/09/08 06:56:18;;;;;;;12.13;9.17;;;;;;;17.11;100.00;101955.06;7368785;19;21250;-47
2023/09/08 06:58:47;;;;;;;16.80;8.90;;;;;;;17.17;100.00;101952.69;7391630;19;21394;-44
2023/09/08 07:01:17;;;;;;;15.60;9.07;;;;;;;17.26;100.00;101946.88;7368246;19;20474;-44
2023/09/08 07:03:47;;;;;;;11.50;8.73;;;;;;;17.32;100.00;101933.19;7391758;19;20513;-43
2023/09/08 07:06:16;;;;;;;12.33;9.20;;;;;;;17.37;100.00;101906.41;7367776;19;20387;-46
2023/09/08 07:08:46;;;;;;;13.93;8.80;;;;;;;17.41;100.00;101892.63;7391874;19;20472;-46
2023/09/08 07:11:18;;;;;;;13.63;9.40;;;;;;;17.48;100.00;101880.66;7369494;19;20403;-45
2023/09/08 07:13:48;;;;;;;13.93;9.20;;;;;;;17.57;100.00;101869.59;7392268;19;20407;-46
2023/09/08 07:16:17;;;;;;;13.40;8.60;;;;;;;17.62;100.00;101859.31;7368029;19;20414;-45
2023/09/08 07:18:47;;;;;;;16.17;9.73;;;;;;;17.70;100.00;101851.72;7392922;19;20468;-46
2023/09/08 07:21:17;;;;;;;16.13;9.30;;;;;;;17.82;100.00;101844.25;7369315;19;20498;-45
2023/09/08 07:23:47;;;;;;;15.00;9.40;;;;;;;17.94;100.00;101828.94;7392157;19;20412;-45
2023/09/08 07:26:19;;;;;;;11.87;8.37;;;;;;;18.03;100.00;101809.13;7370638;19;20407;-45
2023/09/08 07:28:48;;;;;;;23.73;9.63;;;;;;;18.13;100.00;101786.81;7394780;19;20443;-43
2023/09/08 07:31:18;;;;;;;10.90;8.20;;;;;;;18.19;100.00;101782.63;7371445;19;20478;-44
2023/09/08 07:33:48;;;;;;;12.80;8.27;;;;;;;18.29;100.00;101772.41;7395011;19;20409;-43
2023/09/08 07:36:18;;;;;;;14.00;8.60;;;;;;;18.39;100.00;101756.16;7369064;19;20442;-46
2023/09/08 07:38:47;;;;;;;14.87;8.30;;;;;;;18.48;100.00;101753.78;7391907;19;21010;-44
2023/09/08 07:41:20;;;;;;;14.17;8.83;;;;;;;18.68;100.00;101680.19;7368714;19;20391;-45
2023/09/08 07:43:50;;;;;;;93.67;59.93;;;;;;;18.83;100.00;101660.47;7393195;19;20752;-44
2023/09/08 07:46:20;;;;;;;41.13;27.23;;;;;;;18.92;100.00;101621.44;7369995;19;20975;-45
2023/09/08 07:48:50;;;;;;;12.60;8.30;;;;;;;18.96;100.00;101617.16;7393861;19;21304;-44
2023/09/08 07:51:19;;;;;;;15.43;8.60;;;;;;;19.00;100.00;101601.59;7370729;19;20410;-45
2023/09/08 07:53:49;;;;;;;25.03;14.67;;;;;;;19.07;100.00;101579.06;7394960;19;20404;-44
2023/09/08 07:56:22;;;;;;;13.90;10.00;;;;;;;19.25;100.00;101543.66;7370181;19;20797;-44
2023/09/08 07:58:51;;;;;;;12.77;7.80;;;;;;;19.30;100.00;101519.34;7394357;19;20842;-45
2023/09/08 08:01:21;;;;;;;11.80;7.50;;;;;;;19.39;100.00;101488.97;7369545;19;20407;-45
2023/09/08 08:03:50;;;;;;;10.10;7.40;;;;;;;19.45;100.00;101467.25;7393945;19;20411;-44
2023/09/08 08:06:20;;;;;;;11.73;7.90;;;;;;;19.53;100.00;101463.91;7369827;19;20395;-46
2023/09/08 08:08:50;;;;;;;17.10;11.40;;;;;;;19.63;100.00;101471.91;7394102;19;20472;-45
2023/09/08 08:11:22;;;;;;;11.50;8.03;;;;;;;19.70;100.00;101448.47;7370312;19;20502;-44
2023/09/08 08:13:52;;;;;;;17.23;7.57;;;;;;;19.79;100.00;101447.72;7393940;19;20471;-47
2023/09/08 08:16:21;;;;;;;18.60;12.50;;;;;;;19.92;100.00;101438.31;7369845;19;20486;-45
2023/09/08 08:18:51;;;;;;;13.53;8.90;;;;;;;20.00;100.00;101435.81;7393580;19;20454;-45
2023/09/08 08:21:22;;;;;;;15.50;9.27;;;;;;;20.03;100.00;101421.88;7369497;19;20957;-44
2023/09/08 08:23:52;;;;;;;16.87;8.57;;;;;;;20.07;100.00;101429.81;7393820;19;20395;-45
2023/09/08 08:26:28;;;;;;;19.70;10.30;;;;;;;20.22;100.00;101431.75;7369951;19;20423;-45
2023/09/08 08:28:57;;;;;;;15.83;7.77;;;;;;;20.24;100.00;101429.13;7394922;19;20431;-47
2023/09/08 08:31:27;;;;;;;51.47;35.30;;;;;;;20.28;100.00;101425.69;7368452;19;20419;-45
2023/09/08 08:33:57;;;;;;;14.27;8.50;;;;;;;20.39;100.00;101428.44;7393314;19;20411;-46
2023/09/08 08:36:27;;;;;;;12.80;7.30;;;;;;;20.47;100.00;101425.91;7367015;19;20447;-44
2023/09/08 08:38:56;;;;;;;12.07;8.07;;;;;;;20.59;100.00;101427.78;7394091;19;20454;-48
2023/09/08 08:41:29;;;;;;;13.40;9.70;;;;;;;20.80;100.00;101431.50;7369352;19;20526;-46
2023/09/08 08:43:58;;;;;;;10.77;7.63;;;;;;;20.88;100.00;101433.34;7393289;19;20416;-48
2023/09/08 08:46:29;;;;;;;13.77;7.40;;;;;;;20.95;100.00;101425.53;7367168;19;20785;-45
2023/09/08 08:48:59;;;;;;;11.17;7.43;;;;;;;21.08;100.00;101419.56;7393847;19;20522;-46
2023/09/08 08:51:29;;;;;;;13.10;7.23;;;;;;;21.16;100.00;101425.75;7366944;19;20419;-45
2023/09/08 08:54:00;;;;;;;12.60;7.80;;;;;;;21.30;100.00;101432.84;7392948;19;20404;-47
2023/09/08 08:56:32;;;;;;;11.90;7.87;;;;;;;21.37;100.00;101442.50;7367088;19;20430;-47
2023/09/08 08:59:03;;;;;;;12.17;7.40;;;;;;;21.45;100.00;101451.31;7393461;19;20997;-46
2023/09/08 09:01:34;;;;;;;13.70;7.60;;;;;;;21.53;100.00;101450.50;7366478;19;20451;-48
2023/09/08 09:04:04;;;;;;;14.13;8.13;;;;;;;21.67;100.00;101451.47;7393022;19;20418;-44
2023/09/08 09:06:34;;;;;;;11.30;7.63;;;;;;;21.71;100.00;101453.28;7366547;19;20422;-42
2023/09/08 09:09:04;;;;;;;12.40;7.60;;;;;;;21.81;100.00;101453.34;7393364;19;20472;-43
2023/09/08 09:11:36;;;;;;;13.80;8.30;;;;;;;21.85;100.00;101455.13;7366874;19;20426;-44
2023/09/08 09:14:06;;;;;;;13.10;7.40;;;;;;;21.93;100.00;101461.28;7393829;19;20418;-45
2023/09/08 09:16:42;;;;;;;13.40;9.13;;;;;;;22.03;100.00;101466.56;7366022;19;20430;-44
2023/09/08 09:19:12;;;;;;;11.40;7.60;;;;;;;22.08;100.00;101468.38;7393021;19;20430;-46
2023/09/08 09:21:46;;;;;;;13.00;7.10;;;;;;;22.20;100.00;101467.53;7366854;19;20439;-47
2023/09/08 09:24:19;;;;;;;11.97;6.87;;;;;;;22.36;100.00;101479.00;7393276;19;20407;-46
2023/09/08 09:26:54;;;;;;;11.00;7.37;;;;;;;22.46;100.00;101479.06;7367446;19;20517;-46
2023/09/08 09:29:24;;;;;;;10.13;6.87;;;;;;;22.59;100.00;101474.72;7393514;19;20448;-44
2023/09/08 09:31:55;;;;;;;10.70;6.50;;;;;;;22.67;100.00;101483.53;7367336;19;21337;-46
2023/09/08 09:34:25;;;;;;;12.37;7.07;;;;;;;22.75;100.00;101484.44;7393403;19;20584;-44
2023/09/08 09:36:54;;;;;;;9.50;6.40;;;;;;;22.77;100.00;101490.56;7366300;19;21020;-46
2023/09/08 09:39:25;;;;;;;14.57;7.67;;;;;;;22.83;100.00;101491.44;7392473;19;20447;-45
2023/09/08 09:41:59;;;;;;;10.20;6.80;;;;;;;23.06;100.00;101510.78;7365666;19;20785;-46
2023/09/08 09:44:28;;;;;;;14.80;6.70;;;;;;;23.19;100.00;101519.56;7393557;19;20407;-45
2023/09/08 09:46:58;;;;;;;13.00;7.53;;;;;;;23.26;100.00;101524.84;7369556;19;20861;-45
2023/09/08 09:49:31;;;;;;;13.27;8.13;;;;;;;23.32;100.00;101527.50;7397985;19;20531;-46
2023/09/08 09:52:01;;;;;;;10.50;7.10;;;;;;;23.38;100.00;101524.03;7373090;19;20430;-49
2023/09/08 09:54:31;;;;;;;10.67;7.00;;;;;;;23.44;100.00;101524.03;7397745;19;20411;-48
2023/09/08 09:57:04;;;;;;;10.13;7.20;;;;;;;23.53;100.00;101520.50;7373620;19;20430;-45
2023/09/08 09:59:34;;;;;;;11.80;6.43;;;;;;;23.58;100.00;101535.41;7397308;19;20443;-43
2023/09/08 10:02:03;;;;;;;11.90;6.63;;;;;;;23.77;100.00;101522.25;7372243;19;20443;-47
2023/09/08 10:04:33;;;;;;;12.13;7.97;;;;;;;23.87;100.00;101529.25;7400729;19;20435;-47
2023/09/08 10:07:03;;;;;;;9.33;6.57;;;;;;;23.95;100.00;101521.31;7373284;19;20427;-47
2023/09/08 10:09:33;;;;;;;11.03;6.93;;;;;;;24.00;100.00;101535.38;7396853;19;20787;-46
2023/09/08 10:12:07;;;;;;;13.77;7.77;;;;;;;24.19;100.00;101543.25;7372322;19;20423;-47
2023/09/08 10:14:38;;;;;;;11.73;6.50;;;;;;;24.25;100.00;101535.34;7396749;19;20423;-44
2023/09/08 10:17:10;;;;;;;8.03;5.70;;;;;;;24.33;100.00;101547.59;7374040;19;20524;-46
2023/09/08 10:19:41;;;;;;;17.60;6.97;;;;;;;24.42;100.00;101539.69;7396778;19;20975;-46
2023/09/08 10:22:17;;;;;;;10.73;7.70;;;;;;;24.52;100.00;101537.88;7372720;19;20513;-48
2023/09/08 10:24:49;;;;;;;10.93;7.83;;;;;;;24.59;100.00;101581.81;7397369;19;20407;-45
2023/09/08 10:27:23;;;;;;;9.43;6.80;;;;;;;24.71;100.00;101569.47;7372916;19;20468;-45
2023/09/08 10:29:54;;;;;;;12.43;7.80;;;;;;;24.87;100.00;101547.41;7397391;19;21149;-46
2023/09/08 10:32:25;;;;;;;14.47;7.20;;;;;;;25.00;100.00;101531.50;7371592;19;20449;-45
2023/09/08 10:34:57;;;;;;;14.10;7.40;;;;;;;25.17;100.00;101532.25;7395380;19;20407;-44
2023/09/08 10:37:29;;;;;;;12.13;7.33;;;;;;;25.18;100.00;101518.16;7369487;19;20962;-46
2023/09/08 10:39:59;;;;;;;11.17;6.47;;;;;;;25.29;100.00;101525.16;7396984;19;20436;-48
2023/09/08 10:42:31;;;;;;;12.30;7.40;;;;;;;25.49;100.00;101523.22;7373273;19;20419;-47
2023/09/08 10:45:04;;;;;;;10.37;6.27;;;;;;;25.51;100.00;101522.31;7397271;19;20782;-43
2023/09/08 10:47:36;;;;;;;11.30;7.43;;;;;;;25.46;100.00;101539.09;7373322;19;20442;-44
2023/09/08 10:50:08;;;;;;;14.53;6.43;;;;;;;25.44;100.00;101530.28;7375749;19;20467;-46
2023/09/08 10:52:38;;;;;;;11.07;5.90;;;;;;;25.52;100.00;101532.00;7394127;19;20407;-47
2023/09/08 10:55:08;;;;;;;11.30;7.53;;;;;;;25.73;100.00;101573.22;7375493;19;20407;-44
2023/09/08 10:57:40;;;;;;;13.83;8.60;;;;;;;25.75;100.00;101567.03;7393077;19;20404;-42
2023/09/08 11:00:12;;;;;;;12.13;8.20;;;;;;;25.85;100.00;101543.19;7370938;19;20487;-47
2023/09/08 11:02:43;;;;;;;15.93;10.07;;;;;;;25.92;100.00;101542.22;7393865;19;20483;-44
2023/09/08 11:05:14;;;;;;;13.17;7.80;;;;;;;25.87;100.00;101549.31;7372378;19;20403;-44
2023/09/08 11:07:45;;;;;;;27.73;18.87;;;;;;;26.09;100.00;101571.13;7393980;19;20514;-46
2023/09/08 11:10:15;;;;;;;19.07;12.67;;;;;;;26.14;100.00;101552.56;7372393;19;20987;-46
2023/09/08 11:12:48;;;;;;;16.40;10.13;;;;;;;26.25;100.00;101550.72;7395696;19;20406;-48
2023/09/08 11:15:18;;;;;;;48.47;32.47;;;;;;;26.33;100.00;101562.97;7372733;19;20415;-44
2023/09/08 11:17:50;;;;;;;58.63;37.63;;;;;;;26.32;100.00;101553.28;7395995;19;20439;-44
2023/09/08 11:20:29;;;;;;;22.73;15.10;;;;;;;26.40;100.00;101556.75;7372701;19;20408;-50
2023/09/08 11:22:59;;;;;;;18.97;11.77;;;;;;;26.45;100.00;101541.66;7394428;19;20399;-44